createdAt,value
2023-04-02T00:02:32.191Z,7.71
2023-04-02T00:05:50.507Z,7.65
2023-04-02T00:08:29.346Z,7.73
2023-04-02T00:11:00.461Z,7.58
2023-04-02T00:13:33.388Z,7.61
2023-04-02T00:16:05.564Z,7.66
2023-04-02T00:18:35.150Z,7.61
2023-04-02T00:25:42.829Z,7.50
2023-04-02T00:28:14.879Z,7.51
2023-04-02T00:30:49.180Z,7.49
2023-04-02T00:33:21.389Z,7.52
2023-04-02T00:35:51.533Z,7.57
2023-04-02T00:38:23.968Z,7.50
2023-04-02T00:40:53.897Z,7.50
2023-04-02T00:43:22.847Z,7.54
2023-04-02T00:45:56.276Z,7.46
2023-04-02T00:48:46.511Z,7.47
2023-04-02T00:51:18.973Z,7.53
2023-04-02T00:53:48.792Z,7.47
2023-04-02T00:56:25.682Z,7.50
2023-04-02T00:59:21.221Z,7.52
2023-04-02T01:01:54.455Z,7.52
2023-04-02T01:04:34.555Z,7.47
2023-04-02T01:07:08.766Z,7.48
2023-04-02T01:10:02.459Z,7.47
2023-04-02T01:12:45.851Z,7.47
2023-04-02T01:15:20.846Z,7.47
2023-04-02T01:18:03.388Z,7.47
2023-04-02T01:21:01.882Z,7.45
2023-04-02T01:23:36.722Z,7.41
2023-04-02T01:26:15.229Z,7.40
2023-04-02T01:28:58.381Z,7.46
2023-04-02T01:31:29.207Z,7.45
2023-04-02T01:33:58.028Z,7.44
2023-04-02T01:36:33.628Z,7.41
2023-04-02T01:39:08.920Z,7.45
2023-04-02T01:41:43.006Z,7.48
2023-04-02T01:44:18.461Z,7.38
2023-04-02T01:46:50.103Z,7.37
2023-04-02T01:49:21.706Z,7.41
2023-04-02T01:51:53.752Z,7.41
2023-04-02T01:54:23.878Z,7.43
2023-04-02T01:56:52.802Z,7.47
2023-04-02T01:59:24.236Z,7.50
2023-04-02T02:02:02.244Z,7.40
2023-04-02T02:04:33.010Z,7.46
2023-04-02T02:07:02.594Z,7.44
2023-04-02T02:09:35.604Z,7.40
2023-04-02T02:12:05.307Z,7.49
2023-04-02T02:14:34.691Z,7.40
2023-04-02T02:17:04.352Z,7.50
2023-04-02T02:19:36.819Z,7.44
2023-04-02T02:22:12.074Z,7.46
2023-04-02T02:24:41.163Z,7.47
2023-04-02T02:27:43.528Z,7.47
2023-04-02T02:30:17.354Z,7.54
2023-04-02T02:32:55.590Z,7.47
2023-04-02T02:35:28.313Z,7.45
2023-04-02T02:38:04.932Z,7.44
2023-04-02T02:40:38.090Z,7.43
2023-04-02T02:43:11.421Z,7.38
2023-04-02T02:45:44.300Z,7.38
2023-04-02T02:48:16.435Z,7.36
2023-04-02T02:50:46.020Z,7.34
2023-04-02T02:53:22.042Z,7.38
2023-04-02T02:55:55.656Z,7.33
2023-04-02T02:58:31.446Z,7.50
2023-04-02T03:01:08.978Z,7.32
2023-04-02T03:03:40.650Z,7.37
2023-04-02T03:06:16.712Z,7.36
2023-04-02T03:08:54.989Z,7.36
2023-04-02T03:11:34.540Z,7.35
2023-04-02T03:14:14.669Z,7.29
2023-04-02T03:16:47.717Z,7.24
2023-04-02T03:19:27.363Z,7.33
2023-04-02T03:22:03.192Z,7.31
2023-04-02T03:24:41.582Z,7.26
2023-04-02T03:27:17.368Z,7.26
2023-04-02T03:29:52.591Z,7.25
2023-04-02T03:32:24.439Z,7.14
2023-04-02T03:34:56.523Z,7.17
2023-04-02T03:37:31.049Z,7.20
2023-04-02T03:40:04.641Z,7.20
2023-04-02T03:42:41.729Z,7.15
2023-04-02T03:45:16.470Z,7.19
2023-04-02T03:47:52.407Z,7.20
2023-04-02T03:50:27.213Z,7.22
2023-04-02T03:52:58.612Z,7.19
2023-04-02T03:55:30.925Z,7.25
2023-04-02T03:58:04.732Z,7.20
2023-04-02T04:00:41.448Z,7.18
2023-04-02T04:03:16.279Z,7.15
2023-04-02T04:05:49.493Z,7.14
2023-04-02T04:08:21.265Z,7.14
2023-04-02T04:10:53.807Z,7.15
2023-04-02T04:13:26.006Z,7.07
2023-04-02T04:15:59.537Z,7.12
2023-04-02T04:18:37.954Z,7.15
2023-04-02T04:21:29.997Z,7.08
2023-04-02T04:24:07.267Z,7.10
2023-04-02T04:26:44.167Z,7.15
2023-04-02T04:29:28.323Z,7.09
2023-04-02T04:31:57.334Z,7.08
2023-04-02T04:34:46.736Z,7.06
2023-04-02T04:37:25.282Z,7.04
2023-04-02T04:39:59.018Z,7.07
2023-04-02T04:42:31.571Z,7.05
2023-04-02T04:45:05.197Z,7.02
2023-04-02T04:47:37.923Z,6.99
2023-04-02T04:50:14.733Z,6.97
2023-04-02T04:52:44.448Z,7.00
2023-04-02T04:55:38.008Z,6.98
2023-04-02T04:58:16.322Z,6.88
2023-04-02T05:00:55.274Z,6.92
2023-04-02T05:03:31.221Z,6.89
2023-04-02T05:06:09.738Z,6.90
2023-04-02T05:08:45.378Z,6.88
2023-04-02T05:11:21.140Z,6.87
2023-04-02T05:13:54.420Z,6.90
2023-04-02T05:16:27.491Z,6.87
2023-04-02T05:19:03.785Z,6.90
2023-04-02T05:21:42.130Z,6.90
2023-04-02T05:24:34.752Z,6.91
2023-04-02T05:27:11.030Z,6.80
2023-04-02T05:29:45.267Z,6.84
2023-04-02T05:32:18.731Z,6.82
2023-04-02T05:34:51.685Z,6.86
2023-04-02T05:37:24.484Z,6.74
2023-04-02T05:39:56.941Z,6.78
2023-04-02T05:42:28.659Z,6.74
2023-04-02T05:45:21.482Z,6.76
2023-04-02T05:47:54.741Z,6.82
2023-04-02T05:50:31.677Z,6.80
2023-04-02T05:53:07.798Z,6.80
2023-04-02T05:55:46.824Z,6.75
2023-04-02T05:58:35.649Z,6.78
2023-04-02T06:01:21.095Z,6.64
2023-04-02T06:03:58.409Z,6.70
2023-04-02T06:06:43.588Z,6.66
2023-04-02T06:09:19.326Z,6.54
2023-04-02T06:11:53.796Z,6.58
2023-04-02T06:14:22.183Z,6.56
2023-04-02T06:16:50.646Z,6.50
2023-04-02T06:19:24.850Z,6.43
2023-04-02T06:21:59.594Z,6.48
2023-04-02T06:24:32.043Z,6.51
2023-04-02T06:27:06.348Z,6.44
2023-04-02T06:29:39.778Z,6.41
2023-04-02T06:32:12.541Z,6.43
2023-04-02T06:34:44.082Z,6.41
2023-04-02T06:37:22.748Z,6.41
2023-04-02T06:39:58.431Z,6.41
2023-04-02T06:42:32.008Z,6.33
2023-04-02T06:45:07.776Z,6.39
2023-04-02T06:47:53.467Z,6.42
2023-04-02T06:50:47.069Z,6.45
2023-04-02T06:53:23.097Z,6.49
2023-04-02T06:55:56.701Z,6.48
2023-04-02T06:58:29.017Z,6.42
2023-04-02T07:00:58.387Z,6.46
2023-04-02T07:03:43.013Z,6.51
2023-04-02T07:06:22.078Z,6.47
2023-04-02T07:09:17.844Z,6.52
2023-04-02T07:11:51.691Z,6.45
2023-04-02T07:14:21.040Z,6.48
2023-04-02T07:16:49.255Z,6.50
2023-04-02T07:19:20.492Z,6.55
2023-04-02T07:21:50.440Z,6.46
2023-04-02T07:24:20.870Z,6.50
2023-04-02T07:26:48.955Z,6.54
2023-04-02T07:29:19.927Z,6.55
2023-04-02T07:31:47.879Z,6.53
2023-04-02T07:34:16.092Z,6.63
2023-04-02T07:36:44.101Z,6.62
2023-04-02T07:39:12.244Z,6.59
2023-04-02T07:41:53.116Z,6.60
2023-04-02T07:44:22.639Z,6.57
2023-04-02T07:46:50.740Z,6.52
2023-04-02T07:49:18.799Z,6.59
2023-04-02T07:51:47.481Z,6.61
2023-04-02T07:54:15.539Z,6.56
2023-04-02T07:56:43.752Z,6.66
2023-04-02T07:59:12.012Z,6.60
2023-04-02T08:01:43.136Z,6.63
2023-04-02T08:04:19.487Z,6.65
2023-04-02T08:06:48.002Z,6.65
2023-04-02T08:09:17.075Z,6.69
2023-04-02T08:11:46.642Z,6.66
2023-04-02T08:14:15.114Z,6.70
2023-04-02T08:16:49.963Z,6.65
2023-04-02T08:19:18.738Z,6.65
2023-04-02T08:21:48.141Z,6.70
2023-04-02T08:24:19.066Z,6.66
2023-04-02T08:26:47.540Z,6.74
2023-04-02T08:29:15.840Z,6.64
2023-04-02T08:31:44.036Z,6.59
2023-04-02T08:34:13.808Z,6.69
2023-04-02T08:36:45.031Z,6.70
2023-04-02T08:39:13.499Z,6.76
2023-04-02T08:41:46.869Z,6.79
2023-04-02T08:44:32.257Z,6.83
2023-04-02T08:47:04.179Z,6.81
2023-04-02T08:49:37.456Z,6.90
2023-04-02T08:52:05.624Z,6.94
2023-04-02T08:54:38.099Z,7.00
2023-04-02T08:57:16.464Z,7.07
2023-04-02T08:59:47.168Z,7.27
2023-04-02T09:02:28.633Z,7.77
2023-04-02T09:05:03.299Z,7.89
2023-04-02T09:07:33.662Z,7.85
2023-04-02T09:10:01.993Z,7.91
2023-04-02T09:12:32.727Z,7.81
2023-04-02T09:15:12.803Z,7.85
2023-04-02T09:17:53.110Z,7.90
2023-04-02T09:20:26.293Z,7.73
2023-04-02T09:22:56.720Z,7.71
2023-04-02T09:25:27.365Z,7.71
2023-04-02T09:27:58.098Z,7.76
2023-04-02T09:30:41.939Z,7.83
2023-04-02T09:33:10.883Z,7.88
2023-04-02T09:35:56.544Z,7.90
2023-04-02T09:38:29.034Z,7.85
2023-04-02T09:41:01.620Z,7.85
2023-04-02T09:43:31.120Z,7.95
2023-04-02T09:46:01.875Z,8.01
2023-04-02T09:48:33.636Z,8.16
2023-04-02T09:51:11.739Z,8.22
2023-04-02T09:53:42.602Z,8.35
2023-04-02T09:56:12.372Z,8.43
2023-04-02T09:58:40.753Z,8.38
2023-04-02T10:01:27.762Z,8.40
2023-04-02T10:03:56.299Z,8.51
2023-04-02T10:06:26.979Z,8.63
2023-04-02T10:08:55.891Z,8.63
2023-04-02T10:11:36.572Z,8.73
2023-04-02T10:14:39.983Z,8.77
2023-04-02T10:17:15.477Z,8.87
2023-04-02T10:19:48.433Z,9.01
2023-04-02T10:22:19.720Z,8.96
2023-04-02T10:24:48.301Z,9.08
2023-04-02T10:27:28.851Z,8.91
2023-04-02T10:30:09.039Z,9.04
2023-04-02T10:32:42.020Z,9.11
2023-04-02T10:35:20.790Z,9.02
2023-04-02T10:38:17.301Z,9.11
2023-04-02T10:40:50.168Z,8.99
2023-04-02T10:43:49.620Z,9.04
2023-04-02T10:46:25.575Z,9.21
2023-04-02T10:49:03.718Z,9.31
2023-04-02T10:51:39.949Z,9.42
2023-04-02T10:54:28.054Z,9.49
2023-04-02T10:57:06.592Z,9.48
2023-04-02T10:59:38.215Z,9.66
2023-04-02T11:02:22.371Z,10.10
2023-04-02T11:04:55.982Z,10.04
2023-04-02T11:07:30.074Z,10.05
2023-04-02T11:10:01.015Z,9.90
2023-04-02T11:12:42.226Z,9.89
2023-04-02T11:15:17.744Z,9.98
2023-04-02T11:17:46.724Z,10.00
2023-04-02T11:21:04.023Z,9.88
2023-04-02T11:23:59.670Z,10.15
2023-04-02T11:26:41.221Z,10.30
2023-04-02T11:29:18.163Z,10.37
2023-04-02T11:31:47.308Z,10.35
2023-04-02T11:34:17.442Z,10.29
2023-04-02T11:37:09.591Z,10.01
2023-04-02T11:39:53.643Z,10.15
2023-04-02T11:42:31.662Z,10.28
2023-04-02T11:45:02.625Z,10.24
2023-04-02T11:47:31.126Z,10.23
2023-04-02T11:50:07.802Z,10.33
2023-04-02T11:52:52.174Z,10.53
2023-04-02T11:55:27.950Z,10.64
2023-04-02T11:58:24.854Z,10.66
2023-04-02T12:01:31.575Z,10.55
2023-04-02T12:04:34.808Z,10.40
2023-04-02T12:07:20.950Z,10.46
2023-04-02T12:09:52.215Z,10.49
2023-04-02T12:12:28.129Z,10.67
2023-04-02T12:14:58.974Z,10.39
2023-04-02T12:17:31.162Z,10.65
2023-04-02T12:20:04.362Z,10.68
2023-04-02T12:22:35.369Z,10.77
2023-04-02T12:25:07.415Z,11.21
2023-04-02T12:27:38.163Z,11.63
2023-04-02T12:30:17.807Z,11.85
2023-04-02T12:32:46.423Z,11.92
2023-04-02T12:35:29.427Z,11.83
2023-04-02T12:37:58.297Z,11.66
2023-04-02T12:40:27.193Z,11.76
2023-04-02T12:42:55.513Z,11.76
2023-04-02T12:45:29.284Z,11.76
2023-04-02T12:47:58.972Z,12.11
2023-04-02T12:50:27.461Z,12.07
2023-04-02T12:52:59.033Z,12.05
2023-04-02T12:55:28.424Z,11.85
2023-04-02T12:57:58.006Z,11.68
2023-04-02T13:00:36.030Z,11.98
2023-04-02T13:03:19.576Z,12.29
2023-04-02T13:05:52.345Z,12.79
2023-04-02T13:08:23.767Z,12.68
2023-04-02T13:10:57.845Z,13.16
2023-04-02T13:13:33.953Z,12.98
2023-04-02T13:16:22.929Z,13.23
2023-04-02T13:18:51.632Z,13.54
2023-04-02T13:21:28.697Z,13.24
2023-04-02T13:23:57.155Z,13.26
2023-04-02T13:26:27.698Z,12.99
2023-04-02T13:29:01.803Z,13.13
2023-04-02T13:31:33.293Z,13.00
2023-04-02T13:34:01.529Z,12.54
2023-04-02T13:36:29.930Z,12.92
2023-04-02T13:38:58.612Z,13.44
2023-04-02T13:41:29.133Z,13.14
2023-04-02T13:44:00.771Z,12.89
2023-04-02T13:46:33.842Z,12.80
2023-04-02T13:49:02.972Z,12.59
2023-04-02T13:51:37.449Z,12.91
2023-04-02T13:54:10.313Z,12.93
2023-04-02T13:56:38.590Z,12.94
2023-04-02T13:59:07.495Z,12.73
2023-04-02T14:01:37.560Z,12.60
2023-04-02T14:04:10.082Z,12.62
2023-04-02T14:07:13.457Z,12.69
2023-04-02T14:09:54.020Z,12.54
2023-04-02T14:12:35.808Z,12.90
2023-04-02T14:15:20.277Z,13.22
2023-04-02T14:18:04.805Z,13.45
2023-04-02T14:20:43.468Z,13.86
2023-04-02T14:23:32.091Z,13.32
2023-04-02T14:26:11.532Z,13.02
2023-04-02T14:28:51.172Z,13.14
2023-04-02T14:31:27.889Z,13.35
2023-04-02T14:34:04.314Z,13.18
2023-04-02T14:36:39.581Z,12.78
2023-04-02T14:39:40.183Z,12.94
2023-04-02T14:42:15.755Z,13.30
2023-04-02T14:44:50.203Z,13.54
2023-04-02T14:47:23.515Z,13.59
2023-04-02T14:49:58.113Z,13.58
2023-04-02T14:52:30.031Z,13.13
2023-04-02T14:55:03.608Z,13.12
2023-04-02T14:57:33.879Z,13.24
2023-04-02T15:00:05.677Z,12.91
2023-04-02T15:02:45.038Z,13.11
2023-04-02T15:05:20.132Z,13.43
2023-04-02T15:07:53.194Z,13.34
2023-04-02T15:10:27.395Z,13.19
2023-04-02T15:12:57.951Z,13.61
2023-04-02T15:15:40.497Z,13.65
2023-04-02T15:18:14.194Z,13.33
2023-04-02T15:20:54.732Z,13.63
2023-04-02T15:23:37.417Z,13.58
2023-04-02T15:26:16.911Z,13.47
2023-04-02T15:28:49.417Z,13.68
2023-04-02T15:31:18.525Z,13.71
2023-04-02T15:33:54.841Z,14.07
2023-04-02T15:36:44.631Z,13.69
2023-04-02T15:39:51.203Z,14.18
2023-04-02T15:42:23.167Z,14.27
2023-04-02T15:45:19.226Z,14.22
2023-04-02T15:48:07.469Z,14.55
2023-04-02T15:50:52.742Z,14.19
2023-04-02T15:53:34.574Z,13.60
2023-04-02T15:56:15.684Z,13.53
2023-04-02T15:59:11.701Z,14.08
2023-04-02T16:01:54.032Z,14.08
2023-04-02T16:04:52.584Z,14.36
2023-04-02T16:07:46.654Z,14.60
2023-04-02T16:10:33.883Z,14.71
2023-04-02T16:13:18.620Z,14.83
2023-04-02T16:15:52.699Z,14.96
2023-04-02T16:18:28.872Z,14.78
2023-04-02T16:21:02.461Z,15.02
2023-04-02T16:23:35.215Z,14.61
2023-04-02T16:26:18.340Z,15.30
2023-04-02T16:28:56.737Z,15.19
2023-04-02T16:31:31.512Z,14.99
2023-04-02T16:34:06.566Z,15.07
2023-04-02T16:36:44.421Z,14.99
2023-04-02T16:39:26.921Z,15.11
2023-04-02T16:42:06.450Z,14.88
2023-04-02T16:44:45.862Z,14.73
2023-04-02T16:47:30.889Z,14.72
2023-04-02T16:50:12.627Z,14.58
2023-04-02T16:53:14.988Z,14.40
2023-04-02T16:55:52.694Z,13.69
2023-04-02T16:58:35.574Z,13.28
2023-04-02T17:01:12.144Z,13.73
2023-04-02T17:04:06.671Z,13.26
2023-04-02T17:06:42.887Z,13.74
2023-04-02T17:10:25.983Z,13.39
2023-04-02T17:13:04.528Z,13.46
2023-04-02T17:15:39.103Z,13.42
2023-04-02T17:18:17.398Z,13.36
2023-04-02T17:20:45.796Z,13.34
2023-04-02T17:23:15.393Z,12.85
2023-04-02T17:25:51.515Z,12.82
2023-04-02T17:28:25.621Z,12.74
2023-04-02T17:30:58.639Z,12.49
2023-04-02T17:33:28.572Z,12.19
2023-04-02T17:36:26.591Z,11.96
2023-04-02T17:39:03.653Z,11.90
2023-04-02T17:41:37.975Z,11.65
2023-04-02T17:44:18.941Z,11.66
2023-04-02T17:46:59.714Z,11.51
2023-04-02T17:49:40.439Z,11.32
2023-04-02T17:52:18.733Z,10.98
2023-04-02T17:54:57.606Z,10.75
2023-04-02T17:57:40.555Z,10.70
2023-04-02T18:00:36.975Z,10.54
2023-04-02T18:03:37.097Z,10.39
2023-04-02T18:06:08.544Z,10.16
2023-04-02T18:08:45.651Z,10.19
2023-04-02T18:11:21.296Z,10.14
2023-04-02T18:13:58.682Z,9.89
2023-04-02T18:16:42.206Z,9.90
2023-04-02T18:19:17.192Z,9.67
2023-04-02T18:21:55.263Z,9.67
2023-04-02T18:24:51.675Z,9.58
2023-04-02T18:27:47.256Z,9.52
2023-04-02T18:30:23.376Z,9.37
2023-04-02T18:33:14.998Z,9.40
2023-04-02T18:35:55.952Z,9.19
2023-04-02T18:38:32.200Z,9.24
2023-04-02T18:41:15.774Z,9.14
2023-04-02T18:43:57.503Z,9.04
2023-04-02T18:46:34.161Z,9.05
2023-04-02T18:49:08.526Z,8.96
2023-04-02T18:51:40.353Z,8.91
2023-04-02T18:54:20.324Z,8.91
2023-04-02T18:56:48.444Z,8.83
2023-04-02T18:59:31.593Z,8.77
2023-04-02T19:02:05.816Z,8.76
2023-04-02T19:04:36.956Z,8.64
2023-04-02T19:07:08.607Z,8.61
2023-04-02T19:09:40.392Z,8.59
2023-04-02T19:12:16.788Z,8.43
2023-04-02T19:14:44.847Z,8.41
2023-04-02T19:17:24.140Z,8.45
2023-04-02T19:20:05.464Z,8.37
2023-04-02T19:22:40.930Z,8.38
2023-04-02T19:25:24.747Z,8.34
2023-04-02T19:28:13.211Z,8.27
2023-04-02T19:31:07.517Z,8.24
2023-04-02T19:33:57.535Z,8.22
2023-04-02T19:36:45.958Z,8.12
2023-04-02T19:39:55.497Z,8.04
2023-04-02T19:42:40.336Z,7.98
2023-04-02T19:45:22.913Z,7.83
2023-04-02T19:47:51.298Z,7.84
2023-04-02T19:50:19.641Z,7.73
2023-04-02T19:52:47.731Z,7.61
2023-04-02T19:55:16.122Z,7.54
2023-04-02T19:57:45.729Z,7.52
2023-04-02T20:00:15.758Z,7.47
2023-04-02T20:02:43.825Z,7.46
2023-04-02T20:05:12.289Z,7.31
2023-04-02T20:07:40.826Z,7.40
2023-04-02T20:10:10.399Z,7.26
2023-04-02T20:12:38.507Z,7.22
2023-04-02T20:15:09.447Z,7.21
2023-04-02T20:17:37.482Z,7.18
2023-04-02T20:20:06.728Z,7.15
2023-04-02T20:22:34.849Z,7.05
2023-04-02T20:25:02.910Z,7.08
2023-04-02T20:27:31.943Z,7.02
2023-04-02T20:30:00.016Z,6.90
2023-04-02T20:32:30.126Z,6.90
2023-04-02T20:34:58.308Z,6.90
2023-04-02T20:37:26.563Z,6.71
2023-04-02T20:39:54.837Z,6.73
2023-04-02T20:42:22.909Z,6.75
2023-04-02T20:44:51.214Z,6.71
2023-04-02T20:47:19.444Z,6.65
2023-04-02T20:49:50.271Z,6.66
2023-04-02T20:52:18.823Z,6.70
2023-04-02T20:54:47.097Z,6.59
2023-04-02T20:57:15.159Z,6.53
2023-04-02T20:59:43.267Z,6.45
2023-04-02T21:02:13.241Z,6.40
2023-04-02T21:04:41.357Z,6.31
2023-04-02T21:07:10.809Z,6.30
2023-04-02T21:09:38.902Z,6.37
2023-04-02T21:12:11.513Z,6.25
2023-04-02T21:14:40.285Z,6.20
2023-04-02T21:17:08.853Z,6.17
2023-04-02T21:19:37.007Z,6.16
2023-04-02T21:22:05.121Z,6.14
2023-04-02T21:24:34.490Z,6.07
2023-04-02T21:27:02.590Z,6.02
2023-04-02T21:29:30.730Z,5.98
2023-04-02T21:32:01.443Z,5.97
2023-04-02T21:34:31.606Z,5.95
2023-04-02T21:37:00.120Z,5.78
2023-04-02T21:39:28.758Z,5.84
2023-04-02T21:41:58.126Z,5.82
2023-04-02T21:44:26.288Z,5.86
2023-04-02T21:46:54.553Z,5.82
2023-04-02T21:49:23.900Z,5.79
2023-04-02T21:51:52.603Z,5.76
2023-04-02T21:54:20.916Z,5.74
2023-04-02T21:56:49.516Z,5.61
2023-04-02T21:59:19.528Z,5.60
2023-04-02T22:01:49.723Z,5.61
2023-04-02T22:04:19.832Z,5.53
2023-04-02T22:06:48.734Z,5.52
2023-04-02T22:09:19.130Z,5.40
2023-04-02T22:11:48.889Z,5.44
2023-04-02T22:14:18.658Z,5.38
2023-04-02T22:16:46.758Z,5.29
2023-04-02T22:19:16.896Z,5.30
2023-04-02T22:21:45.947Z,5.38
2023-04-02T22:24:18.162Z,5.32
2023-04-02T22:26:46.895Z,5.29
2023-04-02T22:29:15.908Z,5.28
2023-04-02T22:31:45.667Z,5.18
2023-04-02T22:34:13.936Z,5.25
2023-04-02T22:36:42.415Z,5.28
2023-04-02T22:39:12.363Z,5.21
2023-04-02T22:41:41.075Z,5.22
2023-04-02T22:44:13.835Z,5.28
2023-04-02T22:46:41.926Z,5.27
2023-04-02T22:49:12.647Z,5.28
2023-04-02T22:51:40.930Z,5.21
2023-04-02T22:54:08.912Z,5.23
2023-04-02T22:56:37.569Z,5.25
2023-04-02T22:59:05.818Z,5.26
2023-04-02T23:01:36.023Z,5.19
2023-04-02T23:04:05.399Z,5.21
2023-04-02T23:06:35.073Z,5.24
2023-04-02T23:09:04.210Z,5.25
2023-04-02T23:11:35.583Z,5.23
2023-04-02T23:14:03.615Z,5.22
2023-04-02T23:16:31.706Z,5.24
2023-04-02T23:18:59.813Z,5.18
2023-04-02T23:21:54.189Z,5.22
2023-04-02T23:24:22.428Z,5.25
2023-04-02T23:26:50.487Z,5.23
2023-04-02T23:29:18.578Z,5.20
2023-04-02T23:31:46.893Z,5.16
2023-04-02T23:34:15.190Z,5.18
2023-04-02T23:36:43.185Z,5.04
2023-04-02T23:39:14.432Z,5.11
2023-04-02T23:41:44.403Z,5.10
2023-04-02T23:44:12.846Z,5.07
2023-04-02T23:46:41.004Z,5.12
2023-04-02T23:49:12.199Z,5.10
2023-04-02T23:51:40.781Z,5.09
2023-04-02T23:54:08.949Z,5.09
2023-04-02T23:56:38.407Z,5.04
2023-04-02T23:59:06.688Z,5.02
